Time;durP1;ratioP1;P1;durP2;ratioP2;P2;SDS_P1;SDS_P2;PMS_P1;PMS_P2;Temp;Humidity;BMP_temperature;BMP_pressure;BME280_temperature;BME280_humidity;BME280_pressure;Samples;Min_cycle;Max_cycle;Signal;HPM_P1;HPM_P2
2023/02/27 00:01:59;;;;;;;4.53;2.10;;;;;;;-2.58;50.05;102922.38;4961955;28;20875;-70
2023/02/27 00:04:25;;;;;;;2.88;1.10;;;;;;;-2.53;49.68;102920.91;4953295;28;20039;-70
2023/02/27 00:06:50;;;;;;;5.97;1.88;;;;;;;-2.65;49.34;102920.31;4953605;28;20038;-69
2023/02/27 00:09:16;;;;;;;4.40;1.30;;;;;;;-2.80;49.41;102917.91;4954924;28;20035;-69
2023/02/27 00:11:42;;;;;;;5.07;1.88;;;;;;;-2.91;49.91;102919.09;4962772;28;20030;-65
2023/02/27 00:14:08;;;;;;;2.58;1.20;;;;;;;-2.88;49.51;102916.66;4959945;28;20062;-70
2023/02/27 00:16:33;;;;;;;3.00;1.23;;;;;;;-2.93;49.48;102923.25;4962441;28;20425;-68
2023/02/27 00:19:01;;;;;;;5.20;1.90;;;;;;;-3.09;50.03;102925.03;4960604;28;20046;-71
2023/02/27 00:21:27;;;;;;;5.05;1.40;;;;;;;-3.15;49.77;102922.19;4957727;28;20030;-71
2023/02/27 00:23:53;;;;;;;9.02;1.73;;;;;;;-3.08;50.17;102929.34;4972152;28;20043;-72
2023/02/27 00:26:18;;;;;;;2.95;1.05;;;;;;;-3.23;49.97;102927.72;4961049;28;20045;-72
2023/02/27 00:28:43;;;;;;;2.90;1.25;;;;;;;-3.36;50.31;102924.56;4956590;28;20583;-73
2023/02/27 00:31:09;;;;;;;10.10;1.65;;;;;;;-3.30;50.28;102924.84;4967762;28;20491;-74
2023/02/27 00:33:34;;;;;;;4.95;1.75;;;;;;;-3.27;50.30;102922.44;4954579;28;20052;-73
2023/02/27 00:36:01;;;;;;;8.05;1.35;;;;;;;-3.14;50.10;102929.06;4963402;28;20034;-73
2023/02/27 00:38:29;;;;;;;6.15;1.65;;;;;;;-3.06;49.81;102927.75;4938798;28;20134;-73
2023/02/27 00:41:04;;;;;;;7.28;1.92;;;;;;;-3.05;49.27;102924.41;4961094;28;20038;-72
2023/02/27 00:43:29;;;;;;;5.03;1.52;;;;;;;-3.18;49.64;102922.03;4971312;28;20051;-75
2023/02/27 00:45:55;;;;;;;8.55;3.35;;;;;;;-3.14;49.63;102926.50;4952413;28;20045;-75
2023/02/27 00:48:20;;;;;;;6.65;2.20;;;;;;;-3.12;49.69;102927.44;4961071;28;20034;-74
2023/02/27 00:50:46;;;;;;;11.60;2.05;;;;;;;-3.24;49.65;102920.84;4962265;28;20038;-74
2023/02/27 00:53:12;;;;;;;12.85;3.25;;;;;;;-3.31;49.90;102924.78;4967470;28;20511;-73
2023/02/27 00:55:37;;;;;;;4.47;1.98;;;;;;;-3.19;49.72;102924.50;4957293;28;20640;-73
2023/02/27 00:58:03;;;;;;;4.05;1.48;;;;;;;-3.22;49.56;102925.25;4949322;28;20073;-74
2023/02/27 01:00:29;;;;;;;4.85;1.33;;;;;;;-3.36;49.96;102926.19;4955126;28;20042;-69
2023/02/27 01:02:55;;;;;;;3.17;0.80;;;;;;;-3.25;49.89;102932.72;4958934;28;20412;-70
2023/02/27 01:05:22;;;;;;;11.70;1.88;;;;;;;-3.36;49.69;102926.19;4964212;28;20045;-68
2023/02/27 01:07:47;;;;;;;9.15;1.00;;;;;;;-3.44;49.81;102932.63;4954936;28;20057;-68
2023/02/27 01:10:13;;;;;;;5.80;1.65;;;;;;;-3.51;50.00;102932.31;4960286;28;20030;-68
2023/02/27 01:12:39;;;;;;;11.38;1.77;;;;;;;-3.58;49.92;102934.47;4953237;28;20046;-66
2023/02/27 01:15:07;;;;;;;2.80;0.70;;;;;;;-3.49;50.16;102935.81;4963991;28;20174;-74
2023/02/27 01:17:33;;;;;;;11.07;1.70;;;;;;;-3.43;50.37;102935.25;4960705;28;20148;-74
2023/02/27 01:19:58;;;;;;;5.45;1.55;;;;;;;-3.51;50.58;102939.97;4990435;28;20087;-71
2023/02/27 01:22:24;;;;;;;3.85;1.73;;;;;;;-3.36;50.45;102936.44;4947860;28;20070;-71
2023/02/27 01:24:50;;;;;;;2.30;0.63;;;;;;;-3.35;50.61;102944.19;4944189;28;20031;-73
2023/02/27 01:27:15;;;;;;;5.20;1.88;;;;;;;-3.32;50.30;102938.34;4945561;28;20062;-72
2023/02/27 01:29:41;;;;;;;4.57;0.70;;;;;;;-3.43;50.13;102942.91;4960227;28;20038;-72
2023/02/27 01:32:07;;;;;;;10.05;1.48;;;;;;;-3.42;49.91;102948.94;4959315;28;20051;-72
2023/02/27 01:34:32;;;;;;;5.32;1.42;;;;;;;-3.53;50.05;102944.13;4959312;28;20045;-72
2023/02/27 01:37:01;;;;;;;7.82;1.05;;;;;;;-3.53;50.18;102951.78;4949952;28;20306;-72
2023/02/27 01:39:26;;;;;;;3.63;1.17;;;;;;;-3.50;49.84;102954.50;4944215;28;20035;-73
2023/02/27 01:41:52;;;;;;;3.22;0.80;;;;;;;-3.61;50.04;102955.63;4944763;28;20680;-73
2023/02/27 01:44:19;;;;;;;2.80;0.90;;;;;;;-3.62;50.11;102955.56;4959898;28;20027;-75
2023/02/27 01:46:45;;;;;;;1.98;0.77;;;;;;;-3.61;49.95;102949.63;4949521;28;20100;-73
2023/02/27 01:49:20;;;;;;;2.30;0.43;;;;;;;-3.65;50.20;102953.72;4964917;28;20522;-72
2023/02/27 01:51:50;;;;;;;3.53;0.60;;;;;;;-3.61;49.87;102947.09;4943568;28;20368;-73
2023/02/27 01:54:21;;;;;;;6.03;0.77;;;;;;;-3.65;49.91;102952.81;4958360;28;20031;-71
2023/02/27 01:56:48;;;;;;;4.82;0.80;;;;;;;-3.71;50.02;102946.59;4956957;28;20030;-73
2023/02/27 01:59:15;;;;;;;2.72;1.10;;;;;;;-3.75;49.98;102957.47;4956714;28;20050;-73
2023/02/27 02:01:41;;;;;;;2.35;0.50;;;;;;;-3.78;50.15;102951.34;4944731;28;20054;-73
2023/02/27 02:04:10;;;;;;;4.53;1.00;;;;;;;-3.81;50.21;102952.03;4947054;28;20034;-75
2023/02/27 02:06:38;;;;;;;2.85;0.80;;;;;;;-3.80;50.07;102951.25;4969181;28;20089;-73
2023/02/27 02:09:06;;;;;;;2.25;0.40;;;;;;;-3.80;50.03;102948.69;4961417;28;20137;-72
2023/02/27 02:11:31;;;;;;;3.42;0.75;;;;;;;-3.66;50.04;102951.97;4955087;28;20031;-72
2023/02/27 02:14:00;;;;;;;4.00;0.90;;;;;;;-3.69;50.17;102946.69;4960267;28;20511;-70
2023/02/27 02:16:40;;;;;;;2.83;0.50;;;;;;;-3.73;50.04;102940.53;4950296;28;21130;-70
2023/02/27 02:19:24;;;;;;;4.57;0.70;;;;;;;-3.78;49.91;102947.09;4950631;28;20564;-69
2023/02/27 02:22:14;;;;;;;6.45;0.60;;;;;;;-3.82;49.83;102949.41;4941044;28;20479;-69
2023/02/27 02:25:17;;;;;;;3.53;1.10;;;;;;;-3.73;50.00;102942.22;4940904;28;20050;-70
2023/02/27 02:28:06;;;;;;;7.00;0.95;;;;;;;-3.72;50.39;102942.31;4941923;28;20041;-70
2023/02/27 02:30:47;;;;;;;2.17;0.70;;;;;;;-3.76;50.40;102939.50;4935803;28;20038;-68
2023/02/27 02:33:25;;;;;;;1.92;0.70;;;;;;;-3.64;50.22;102939.28;4937354;28;20046;-69
2023/02/27 02:36:09;;;;;;;2.85;1.02;;;;;;;-3.64;50.09;102935.03;4951126;28;20579;-67
2023/02/27 02:38:46;;;;;;;5.40;0.80;;;;;;;-3.63;50.03;102944.47;4936448;28;20066;-67
2023/02/27 02:41:30;;;;;;;4.80;0.70;;;;;;;-3.76;50.26;102939.50;4940614;28;20035;-67
2023/02/27 02:44:23;;;;;;;3.45;0.82;;;;;;;-3.80;50.02;102942.69;4936062;28;20487;-67
2023/02/27 02:47:06;;;;;;;2.78;1.00;;;;;;;-3.97;50.44;102935.00;4945808;28;20030;-67
2023/02/27 02:49:41;;;;;;;5.15;0.57;;;;;;;-3.91;50.30;102932.78;4972498;28;20065;-70
2023/02/27 02:52:26;;;;;;;3.25;0.82;;;;;;;-3.88;50.37;102944.84;4952552;28;20181;-70
2023/02/27 02:54:58;;;;;;;5.15;0.45;;;;;;;-3.90;50.46;102937.13;4940956;28;20042;-68
2023/02/27 02:57:50;;;;;;;2.63;0.73;;;;;;;-3.86;50.48;102942.38;4935157;28;20106;-67
2023/02/27 03:00:30;;;;;;;3.08;0.43;;;;;;;-3.84;50.30;102945.88;4944137;28;20026;-71
2023/02/27 03:03:08;;;;;;;6.95;1.45;;;;;;;-3.95;50.49;102937.66;4927431;28;20492;-72
2023/02/27 03:05:40;;;;;;;0.77;0.28;;;;;;;-3.96;50.45;102936.78;4946098;28;20042;-73
2023/02/27 03:08:09;;;;;;;;;;;;;;;-4.03;50.24;102946.56;4957552;28;20049;-71
2023/02/27 03:10:59;;;;;;;2.63;0.38;;;;;;;-3.99;50.18;102939.16;4950929;28;19952;-71
2023/02/27 03:13:44;;;;;;;3.30;0.30;;;;;;;-4.03;50.68;102932.16;4954451;28;20949;-70
2023/02/27 03:16:12;;;;;;;5.78;0.70;;;;;;;-4.10;50.73;102938.59;4954844;28;20484;-70
2023/02/27 03:19:02;;;;;;;4.95;0.40;;;;;;;-3.99;50.61;102936.59;4941740;28;20126;-71
2023/02/27 03:21:39;;;;;;;0.77;0.10;;;;;;;-3.97;50.85;102934.13;4963886;28;20543;-67
2023/02/27 03:24:08;;;;;;;3.50;0.30;;;;;;;-3.83;50.48;102938.31;4953184;28;20053;-68
2023/02/27 03:26:41;;;;;;;4.55;0.30;;;;;;;-3.92;50.21;102943.81;4997842;28;20030;-73
2023/02/27 03:29:10;;;;;;;3.42;0.25;;;;;;;-3.96;50.31;102952.09;4999350;28;20065;-72
2023/02/27 03:31:54;;;;;;;3.92;0.40;;;;;;;-4.08;50.32;102951.44;4970808;28;20041;-72
2023/02/27 03:34:37;;;;;;;3.22;0.35;;;;;;;-4.07;50.41;102957.44;4969181;28;20046;-72
2023/02/27 03:37:27;;;;;;;2.25;0.30;;;;;;;-4.10;50.35;102960.69;4945408;28;20496;-72
2023/02/27 03:40:18;;;;;;;2.67;0.32;;;;;;;-4.16;50.32;102956.13;4982668;28;21673;-72
2023/02/27 03:42:50;;;;;;;2.95;0.40;;;;;;;-4.19;50.42;102957.63;4951673;28;20031;-72
2023/02/27 03:45:41;;;;;;;1.08;0.30;;;;;;;-4.26;50.46;102958.09;4959553;28;20042;-72
2023/02/27 03:48:07;;;;;;;1.77;0.63;;;;;;;-4.30;50.61;102957.94;4954865;28;20042;-73
2023/02/27 03:50:35;;;;;;;3.83;0.60;;;;;;;-4.20;50.48;102966.97;4945867;28;20690;-72
2023/02/27 03:53:05;;;;;;;3.17;0.50;;;;;;;-4.27;50.62;102969.13;4986361;28;20066;-72
2023/02/27 03:55:36;;;;;;;2.15;0.60;;;;;;;-4.19;50.12;102973.81;4975593;28;20038;-72
2023/02/27 03:58:03;;;;;;;2.15;0.50;;;;;;;-4.28;50.16;102967.34;4977929;28;20034;-73
2023/02/27 04:00:29;;;;;;;6.07;0.52;;;;;;;-4.23;50.37;102973.56;4953538;28;20130;-73
2023/02/27 04:02:57;;;;;;;1.25;0.10;;;;;;;-4.28;50.35;102972.47;4969720;28;20030;-73
2023/02/27 04:05:24;;;;;;;2.58;0.30;;;;;;;-4.34;50.67;102978.13;4957604;28;20101;-73
2023/02/27 04:08:55;;;;;;;2.25;0.20;;;;;;;-4.27;50.56;102976.78;4952758;28;20096;-73
2023/02/27 04:11:41;;;;;;;1.10;0.20;;;;;;;-4.16;50.63;102978.25;4954945;28;20043;-71
2023/02/27 04:14:25;;;;;;;1.05;0.10;;;;;;;-4.09;50.94;102980.34;4939156;28;20130;-72
2023/02/27 04:17:22;;;;;;;2.97;0.20;;;;;;;-3.88;50.61;102984.03;4960268;28;20290;-72
2023/02/27 04:19:50;;;;;;;1.30;0.80;;;;;;;-3.74;50.49;102989.00;4956584;28;20446;-73
2023/02/27 04:22:39;;;;;;;1.88;0.40;;;;;;;-3.61;50.64;102983.75;4972137;28;20092;-73
2023/02/27 04:25:31;;;;;;;6.38;0.20;;;;;;;-3.45;50.36;102990.56;4958650;28;20038;-73
2023/02/27 04:28:16;;;;;;;2.38;0.45;;;;;;;-3.40;50.42;102999.34;4967513;28;20077;-71
2023/02/27 04:31:07;;;;;;;4.00;0.47;;;;;;;-3.27;50.38;102994.06;4955084;28;20038;-73
2023/02/27 04:33:44;;;;;;;3.35;0.52;;;;;;;-3.13;49.93;102999.88;4952479;28;20713;-72
2023/02/27 04:36:13;;;;;;;2.38;0.40;;;;;;;-3.03;49.94;103005.44;4955996;28;20776;-76
2023/02/27 04:38:58;;;;;;;4.15;0.45;;;;;;;-2.92;49.97;103012.84;4953703;28;20089;-70
2023/02/27 04:41:29;;;;;;;5.13;0.50;;;;;;;-2.81;49.70;103010.84;4937704;28;20066;-73
2023/02/27 04:43:56;;;;;;;1.00;0.20;;;;;;;-2.81;49.75;103015.97;4934694;28;20528;-75
2023/02/27 04:46:25;;;;;;;5.35;0.40;;;;;;;-2.71;49.83;103009.63;4939363;28;20610;-76
2023/02/27 04:48:58;;;;;;;4.97;0.38;;;;;;;-2.64;49.93;103014.25;4940119;28;20039;-76
2023/02/27 04:51:30;;;;;;;2.92;0.30;;;;;;;-2.59;49.77;103009.34;4937248;28;20028;-77
2023/02/27 04:54:13;;;;;;;2.42;0.60;;;;;;;-2.61;49.59;103018.63;4934910;28;20054;-76
2023/02/27 04:56:50;;;;;;;1.02;0.17;;;;;;;-2.46;49.62;103021.94;4942640;28;20130;-75
2023/02/27 04:59:38;;;;;;;1.20;0.30;;;;;;;-2.26;49.53;103023.78;4930766;28;20112;-69
2023/02/27 05:02:13;;;;;;;2.97;0.40;;;;;;;-2.35;49.26;103025.91;4939034;28;20065;-75
2023/02/27 05:04:41;;;;;;;2.95;0.40;;;;;;;-2.33;49.38;103026.88;4936090;28;20110;-74
2023/02/27 05:07:10;;;;;;;4.68;0.47;;;;;;;-2.32;49.65;103030.28;4948643;28;20035;-71
2023/02/27 05:09:44;;;;;;;4.85;0.45;;;;;;;-2.21;49.61;103032.56;4937175;28;20211;-71
2023/02/27 05:12:21;;;;;;;4.90;0.82;;;;;;;-2.12;49.60;103026.13;4954453;28;20031;-69
2023/02/27 05:14:58;;;;;;;3.80;0.60;;;;;;;-2.19;49.63;103034.34;4943589;28;20134;-71
2023/02/27 05:17:36;;;;;;;4.45;0.70;;;;;;;-2.15;49.72;103039.66;4939546;28;20137;-70
2023/02/27 05:20:06;;;;;;;2.17;0.73;;;;;;;-2.03;49.84;103036.81;4937436;28;20049;-70
2023/02/27 05:22:57;;;;;;;2.97;0.70;;;;;;;-2.04;50.01;103035.06;4919541;28;20038;-70
2023/02/27 05:25:29;;;;;;;4.23;0.87;;;;;;;-1.91;50.15;103032.25;4925261;28;20067;-69
2023/02/27 05:28:01;;;;;;;2.78;0.50;;;;;;;-1.82;50.01;103042.94;4934625;28;20417;-69
2023/02/27 05:30:32;;;;;;;6.72;0.40;;;;;;;-1.73;50.05;103037.34;4953408;28;20070;-69
2023/02/27 05:33:06;;;;;;;7.78;0.35;;;;;;;-1.73;50.04;103036.47;4941287;28;20761;-70
2023/02/27 05:36:01;;;;;;;4.80;0.68;;;;;;;-1.72;50.01;103033.09;4935468;28;20078;-69
2023/02/27 05:38:33;;;;;;;7.22;1.23;;;;;;;-1.59;50.13;103041.41;4944945;28;20046;-72
2023/02/27 05:41:05;;;;;;;6.00;0.93;;;;;;;-1.64;49.91;103049.72;4936651;28;20875;-70
2023/02/27 05:43:39;;;;;;;7.97;1.83;;;;;;;-1.50;50.01;103040.97;4939151;28;20035;-72
2023/02/27 05:46:12;;;;;;;3.53;0.93;;;;;;;-1.49;50.02;103040.13;4937620;28;20197;-71
2023/02/27 05:48:42;;;;;;;5.15;0.77;;;;;;;-1.46;50.13;103027.47;4950989;28;20035;-68
2023/02/27 05:51:12;;;;;;;4.55;1.20;;;;;;;-1.32;50.21;103025.50;4935849;28;20026;-69
2023/02/27 05:53:45;;;;;;;9.07;0.70;;;;;;;-1.40;50.02;103032.88;4934227;28;20138;-68
2023/02/27 05:56:13;;;;;;;12.82;1.20;;;;;;;-1.40;50.11;103035.44;4936812;28;21865;-70
2023/02/27 05:58:43;;;;;;;4.07;1.10;;;;;;;-1.48;50.13;103039.34;4938752;28;20040;-69
2023/02/27 06:01:10;;;;;;;6.93;1.27;;;;;;;-1.30;49.87;103033.28;4936519;28;20049;-74
2023/02/27 06:03:38;;;;;;;3.47;0.85;;;;;;;-1.29;50.05;103030.75;4936722;28;20039;-74
2023/02/27 06:06:07;;;;;;;2.25;0.45;;;;;;;-1.26;50.04;103037.75;4949206;28;20134;-75
2023/02/27 06:08:33;;;;;;;3.08;0.57;;;;;;;-1.20;49.89;103035.41;4951423;28;20062;-74
2023/02/27 06:10:58;;;;;;;3.78;1.10;;;;;;;-1.18;50.01;103023.53;4948930;28;20073;-77
2023/02/27 06:13:25;;;;;;;5.93;1.92;;;;;;;-1.04;50.14;103026.72;4934582;28;20042;-77
2023/02/27 06:15:51;;;;;;;5.18;1.40;;;;;;;-1.01;50.00;103027.75;4956501;28;20519;-77
2023/02/27 06:18:17;;;;;;;7.18;1.63;;;;;;;-1.03;50.07;103033.63;4960650;28;20093;-74
2023/02/27 06:20:44;;;;;;;2.85;0.93;;;;;;;-1.12;50.02;103039.19;4964306;28;20043;-76
2023/02/27 06:23:11;;;;;;;3.90;1.33;;;;;;;-1.05;50.42;103035.25;4957591;28;20030;-75
2023/02/27 06:25:36;;;;;;;4.85;1.17;;;;;;;-0.92;50.14;103041.78;4958861;28;20467;-75
2023/02/27 06:28:02;;;;;;;3.85;1.20;;;;;;;-1.00;49.78;103031.19;4981555;28;20042;-80
2023/02/27 06:30:28;;;;;;;3.83;0.65;;;;;;;-0.95;50.16;103037.41;4961819;28;20030;-73
2023/02/27 06:32:53;;;;;;;1.95;0.68;;;;;;;-0.94;50.40;103034.00;4945511;28;20408;-74
2023/02/27 06:35:19;;;;;;;2.85;1.02;;;;;;;-0.95;50.26;103042.53;4956103;28;20094;-75
2023/02/27 06:37:45;;;;;;;4.90;0.77;;;;;;;-1.13;49.80;103037.44;4954887;28;20053;-76
2023/02/27 06:40:11;;;;;;;3.72;0.77;;;;;;;-1.25;50.33;103042.91;4970170;28;20865;-77
2023/02/27 06:42:38;;;;;;;8.25;1.00;;;;;;;-1.21;50.52;103038.81;4958506;28;20046;-75
2023/02/27 06:45:04;;;;;;;5.65;0.93;;;;;;;-1.09;50.44;103049.59;4954951;28;20089;-74
2023/02/27 06:47:30;;;;;;;3.70;0.32;;;;;;;-1.07;50.59;103052.22;4964495;28;20031;-71
2023/02/27 06:49:56;;;;;;;3.92;0.95;;;;;;;-1.01;50.46;103061.09;4969892;28;20050;-73
2023/02/27 06:52:22;;;;;;;4.82;1.60;;;;;;;-1.08;50.52;103066.75;4946493;28;20027;-70
2023/02/27 06:54:48;;;;;;;4.60;1.92;;;;;;;-0.86;50.32;103067.69;4955834;28;20041;-71
2023/02/27 06:57:13;;;;;;;10.82;3.10;;;;;;;-0.90;50.30;103070.97;4957346;28;20035;-75
2023/02/27 06:59:39;;;;;;;11.85;2.08;;;;;;;-0.81;50.58;103079.06;4953773;28;20053;-75
2023/02/27 07:02:04;;;;;;;14.10;3.67;;;;;;;-0.75;50.43;103076.72;4944873;28;20034;-76
2023/02/27 07:04:30;;;;;;;15.55;2.88;;;;;;;-0.54;49.85;103078.47;4951138;28;20884;-76
2023/02/27 07:06:56;;;;;;;12.32;3.55;;;;;;;-0.44;49.83;103086.59;4957523;28;20428;-76
2023/02/27 07:09:22;;;;;;;13.95;3.92;;;;;;;-0.40;49.76;103087.63;4956158;28;20065;-78
2023/02/27 07:11:47;;;;;;;8.65;3.78;;;;;;;-0.19;50.02;103085.94;4976166;28;20026;-74
2023/02/27 07:14:15;;;;;;;6.00;2.15;;;;;;;-0.10;49.28;103085.44;4951773;28;20046;-74
2023/02/27 07:16:41;;;;;;;6.25;2.10;;;;;;;0.09;49.24;103087.00;4953824;28;20507;-70
2023/02/27 07:19:07;;;;;;;12.32;2.60;;;;;;;0.26;49.12;103092.81;4958498;28;20498;-73
2023/02/27 07:21:35;;;;;;;4.80;2.53;;;;;;;0.33;48.88;103091.38;4951698;28;20027;-71
2023/02/27 07:24:03;;;;;;;7.60;2.00;;;;;;;0.34;48.39;103093.97;4954791;28;20050;-72
2023/02/27 07:26:29;;;;;;;3.53;2.08;;;;;;;0.54;49.03;103101.59;4958775;28;20285;-72
2023/02/27 07:28:55;;;;;;;11.45;2.75;;;;;;;0.79;48.75;103104.25;4955759;28;20491;-72
2023/02/27 07:31:20;;;;;;;10.70;4.10;;;;;;;0.97;47.95;103104.03;4954661;28;20034;-73
2023/02/27 07:33:46;;;;;;;10.23;3.53;;;;;;;1.10;48.31;103111.38;4960304;28;20043;-69
2023/02/27 07:36:12;;;;;;;11.93;4.07;;;;;;;1.44;47.77;103104.84;4960942;28;20038;-72
2023/02/27 07:38:37;;;;;;;12.45;6.68;;;;;;;1.70;46.90;103099.66;4962134;28;20042;-71
2023/02/27 07:41:03;;;;;;;9.93;4.85;;;;;;;1.92;45.87;103109.84;4954380;28;20578;-71
2023/02/27 07:43:29;;;;;;;7.90;4.05;;;;;;;2.09;46.02;103106.94;4945077;28;20667;-70
2023/02/27 07:45:55;;;;;;;13.25;5.88;;;;;;;2.55;46.36;103110.91;4946168;28;20041;-71
2023/02/27 07:48:21;;;;;;;11.70;5.32;;;;;;;3.10;45.10;103112.47;4953531;28;20522;-70
2023/02/27 07:50:46;;;;;;;8.55;4.00;;;;;;;3.67;44.05;103118.25;4955095;28;20039;-73
2023/02/27 07:53:12;;;;;;;9.32;4.63;;;;;;;4.32;41.69;103113.75;4957004;28;20233;-70
2023/02/27 07:55:38;;;;;;;14.30;4.35;;;;;;;5.15;40.29;103105.09;4968379;28;20037;-71
2023/02/27 07:58:04;;;;;;;9.52;3.97;;;;;;;6.18;38.74;103100.72;4953253;28;20034;-71
2023/02/27 08:00:30;;;;;;;6.15;2.30;;;;;;;7.31;36.04;103099.47;4956660;28;20046;-70
2023/02/27 08:02:56;;;;;;;6.05;2.15;;;;;;;7.63;35.47;103105.84;4957527;28;20140;-72
2023/02/27 08:05:21;;;;;;;3.63;1.40;;;;;;;9.36;31.82;103104.00;4952273;28;20550;-70
2023/02/27 08:07:47;;;;;;;4.25;1.05;;;;;;;11.36;30.47;103098.13;4953491;28;20030;-72
2023/02/27 08:10:15;;;;;;;2.05;1.00;;;;;;;12.56;27.29;103102.16;4952781;28;20053;-71
2023/02/27 08:12:40;;;;;;;7.82;1.55;;;;;;;13.14;25.90;103094.34;4954171;28;20037;-71
2023/02/27 08:15:06;;;;;;;5.32;1.42;;;;;;;12.59;25.90;103096.88;4952635;28;20424;-71
2023/02/27 08:17:32;;;;;;;4.32;1.40;;;;;;;12.65;27.25;103096.78;4953029;28;20418;-70
2023/02/27 08:19:58;;;;;;;4.30;0.80;;;;;;;11.84;26.73;103100.34;4956927;28;20066;-68
2023/02/27 08:22:24;;;;;;;3.63;0.77;;;;;;;11.66;27.35;103096.13;4953198;28;20035;-72
2023/02/27 08:24:49;;;;;;;3.53;0.65;;;;;;;12.03;27.17;103090.56;4951820;28;20470;-68
2023/02/27 08:27:15;;;;;;;1.95;0.30;;;;;;;13.06;25.54;103087.47;4953702;28;20176;-69
2023/02/27 08:29:42;;;;;;;1.55;0.13;;;;;;;12.66;25.95;103092.41;4937216;28;20055;-69
2023/02/27 08:32:08;;;;;;;2.55;0.30;;;;;;;11.07;27.49;103100.97;4957777;28;20304;-73
2023/02/27 08:34:34;;;;;;;4.75;0.30;;;;;;;9.81;29.62;103101.41;4963828;28;20047;-70
2023/02/27 08:36:59;;;;;;;4.07;0.30;;;;;;;8.45;31.46;103113.31;4960440;28;20081;-69
2023/02/27 08:39:24;;;;;;;1.80;0.15;;;;;;;8.40;32.39;103115.00;4954603;28;20409;-69
2023/02/27 08:41:54;;;;;;;3.83;0.68;;;;;;;8.19;33.05;103120.13;4959300;28;20140;-69
2023/02/27 08:44:20;;;;;;;4.05;0.28;;;;;;;7.52;34.20;103116.13;4966079;28;20052;-75
2023/02/27 08:46:45;;;;;;;3.30;0.30;;;;;;;7.56;34.37;103117.94;4965341;28;20080;-69
2023/02/27 08:49:11;;;;;;;9.35;0.75;;;;;;;7.44;34.30;103109.97;4956765;28;20517;-68
2023/02/27 08:51:36;;;;;;;0.95;0.40;;;;;;;7.01;34.87;103119.97;4958221;28;20177;-68
2023/02/27 08:54:02;;;;;;;11.90;0.85;;;;;;;6.98;35.44;103120.81;4959398;28;20051;-71
2023/02/27 08:56:28;;;;;;;2.53;0.57;;;;;;;7.29;34.66;103122.00;4960256;28;20340;-69
2023/02/27 08:58:54;;;;;;;3.67;0.45;;;;;;;6.62;35.69;103121.22;4958168;28;20034;-68
2023/02/27 09:01:20;;;;;;;2.40;0.20;;;;;;;6.43;36.79;103121.00;4952321;28;20031;-69
2023/02/27 09:03:45;;;;;;;0.68;0.20;;;;;;;5.99;37.11;103116.00;4960317;28;20038;-69
2023/02/27 09:06:11;;;;;;;1.02;0.28;;;;;;;5.96;37.26;103117.69;4953035;28;20031;-69
2023/02/27 09:08:37;;;;;;;2.30;0.20;;;;;;;5.83;38.36;103129.59;4953865;28;20039;-70
2023/02/27 09:11:03;;;;;;;4.43;0.30;;;;;;;5.64;37.92;103125.84;4961268;28;20084;-69
2023/02/27 09:13:28;;;;;;;14.25;0.60;;;;;;;5.82;37.91;103125.28;4968471;28;20466;-68
2023/02/27 09:15:54;;;;;;;3.75;0.50;;;;;;;6.44;37.25;103122.75;4960773;28;20034;-69
2023/02/27 09:18:19;;;;;;;1.33;0.10;;;;;;;6.35;37.63;103119.13;4957482;28;20125;-69
2023/02/27 09:20:47;;;;;;;3.97;0.85;;;;;;;6.86;36.05;103124.16;4961449;28;20481;-69
2023/02/27 09:23:12;;;;;;;3.92;0.47;;;;;;;6.61;37.16;103119.50;4958428;28;20034;-70
2023/02/27 09:25:38;;;;;;;3.58;0.73;;;;;;;6.49;37.72;103125.41;4964554;28;20748;-69
2023/02/27 09:28:03;;;;;;;3.75;0.75;;;;;;;6.33;36.58;103129.53;4961554;28;20122;-69
2023/02/27 09:30:29;;;;;;;3.47;0.20;;;;;;;6.52;36.54;103129.78;4957057;28;21492;-70
2023/02/27 09:32:55;;;;;;;1.23;0.10;;;;;;;6.61;36.81;103125.56;4961829;28;20069;-70
2023/02/27 09:35:20;;;;;;;0.45;0.10;;;;;;;6.90;35.07;103119.84;4959869;28;20089;-74
2023/02/27 09:37:48;;;;;;;1.98;0.10;;;;;;;6.47;35.01;103120.19;4943798;28;20092;-70
2023/02/27 09:40:24;;;;;;;1.20;0.55;;;;;;;6.22;34.90;103112.91;4952740;28;20154;-73
2023/02/27 09:42:52;;;;;;;1.98;0.20;;;;;;;6.25;35.74;103121.59;4953408;28;20404;-71
2023/02/27 09:45:27;;;;;;;25.58;1.58;;;;;;;6.29;34.08;103122.53;4954901;28;20042;-68
2023/02/27 09:48:25;;;;;;;1.58;0.45;;;;;;;6.61;33.75;103124.69;4959879;28;20046;-69
2023/02/27 09:50:51;;;;;;;1.77;0.00;;;;;;;6.43;33.27;103121.00;4951527;28;20170;-72
2023/02/27 09:53:37;;;;;;;0.50;0.10;;;;;;;7.00;32.83;103119.09;4951499;28;20046;-71
2023/02/27 09:56:26;;;;;;;1.10;0.20;;;;;;;6.60;32.72;103116.03;4960865;28;20738;-70
2023/02/27 09:58:54;;;;;;;0.77;0.10;;;;;;;6.73;33.70;103111.84;4941074;28;20038;-70
2023/02/27 10:01:20;;;;;;;1.52;0.00;;;;;;;6.36;33.34;103111.38;4957037;28;20066;-69
2023/02/27 10:04:08;;;;;;;0.75;0.03;;;;;;;6.45;33.63;103108.91;4952012;28;20027;-71
2023/02/27 10:06:47;;;;;;;0.47;0.00;;;;;;;6.25;34.21;103128.50;4951246;28;20046;-71
2023/02/27 10:09:40;;;;;;;1.90;0.10;;;;;;;7.27;33.47;103134.09;4952634;28;20510;-71
2023/02/27 10:12:08;;;;;;;2.65;0.05;;;;;;;7.28;32.04;103124.56;4952903;28;20049;-69
2023/02/27 10:14:42;;;;;;;1.27;0.10;;;;;;;7.56;31.95;103119.63;4955800;28;20066;-70
2023/02/27 10:17:19;;;;;;;2.67;0.25;;;;;;;7.18;32.50;103121.00;4958762;28;20070;-70
2023/02/27 10:19:47;;;;;;;0.73;0.60;;;;;;;7.47;32.18;103125.63;4953271;28;20134;-70
2023/02/27 10:22:19;;;;;;;3.22;0.10;;;;;;;7.78;31.78;103121.59;4956159;28;20034;-69
2023/02/27 10:24:53;;;;;;;0.65;0.08;;;;;;;7.53;30.84;103130.88;4939217;28;20655;-70
2023/02/27 10:27:20;;;;;;;3.03;0.05;;;;;;;7.54;30.89;103132.63;4948563;28;20385;-69
2023/02/27 10:29:46;;;;;;;3.45;0.10;;;;;;;7.47;31.33;103136.03;4942033;28;20112;-69
2023/02/27 10:32:23;;;;;;;0.45;0.00;;;;;;;7.50;31.13;103129.13;4952373;28;20081;-69
2023/02/27 10:35:19;;;;;;;1.58;0.00;;;;;;;7.59;31.41;103130.97;4950871;28;20137;-70
2023/02/27 10:37:49;;;;;;;0.65;0.10;;;;;;;8.28;30.70;103134.06;4950267;28;20039;-70
2023/02/27 10:40:16;;;;;;;0.85;0.30;;;;;;;8.62;29.38;103130.75;4948172;28;20514;-70
2023/02/27 10:42:42;;;;;;;2.25;0.03;;;;;;;8.69;28.42;103132.50;4953460;28;20037;-73
2023/02/27 10:45:14;;;;;;;3.80;0.22;;;;;;;8.41;29.31;103135.00;4953998;28;20046;-72
2023/02/27 10:47:40;;;;;;;4.13;0.40;;;;;;;8.22;30.34;103136.63;4952880;28;20459;-71
2023/02/27 10:50:24;;;;;;;1.05;0.15;;;;;;;8.23;29.43;103145.34;4950101;28;20054;-73
2023/02/27 10:53:01;;;;;;;2.22;0.20;;;;;;;8.83;29.52;103137.81;4961719;28;20121;-72
2023/02/27 10:55:38;;;;;;;1.80;0.00;;;;;;;8.20;29.40;103145.28;4948908;28;20268;-69
2023/02/27 10:58:03;;;;;;;3.45;0.22;;;;;;;7.51;31.25;103148.19;4954667;28;20725;-71
2023/02/27 11:00:55;;;;;;;0.35;0.10;;;;;;;7.43;31.39;103145.53;4946125;28;20057;-68
2023/02/27 11:03:25;;;;;;;3.17;0.20;;;;;;;7.14;31.24;103147.84;4951117;28;20046;-69
2023/02/27 11:05:54;;;;;;;0.57;0.20;;;;;;;6.83;30.57;103146.63;4951986;28;20565;-70
2023/02/27 11:08:27;;;;;;;0.20;0.00;;;;;;;6.94;31.30;103152.81;4951169;28;20439;-70
2023/02/27 11:11:05;;;;;;;6.13;0.10;;;;;;;7.03;30.30;103154.66;4957156;28;20042;-70
2023/02/27 11:13:37;;;;;;;5.20;0.20;;;;;;;7.91;30.08;103145.97;4948413;28;20038;-70
2023/02/27 11:16:12;;;;;;;1.65;0.03;;;;;;;7.98;29.43;103139.97;4949639;28;20538;-71
2023/02/27 11:18:42;;;;;;;3.40;0.80;;;;;;;7.57;30.60;103143.09;4930641;28;20407;-70
2023/02/27 11:21:23;;;;;;;1.95;0.30;;;;;;;7.95;31.56;103152.94;4934046;28;20044;-71
2023/02/27 11:23:55;;;;;;;1.08;0.17;;;;;;;7.43;31.90;103147.28;4930509;28;20510;-70
2023/02/27 11:26:34;;;;;;;3.35;0.20;;;;;;;7.20;31.89;103147.91;4931494;28;20030;-69
2023/02/27 11:29:19;;;;;;;3.72;0.20;;;;;;;7.10;32.79;103144.31;4932734;28;20129;-69
2023/02/27 11:31:47;;;;;;;2.08;0.20;;;;;;;7.35;32.94;103148.91;4933081;28;20100;-69
2023/02/27 11:34:35;;;;;;;3.53;0.00;;;;;;;8.52;31.51;103133.31;4947897;28;20906;-70
2023/02/27 11:37:17;;;;;;;2.65;0.50;;;;;;;8.18;31.52;103139.19;4947147;28;23197;-71
2023/02/27 11:40:13;;;;;;;2.65;0.13;;;;;;;8.32;32.22;103137.56;4920568;28;20067;-70
2023/02/27 11:42:50;;;;;;;1.17;0.00;;;;;;;7.50;33.19;103146.47;4931815;28;20968;-70
2023/02/27 11:45:18;;;;;;;7.18;0.20;;;;;;;7.57;32.75;103144.81;4935392;28;20042;-73
2023/02/27 11:47:48;;;;;;;6.25;0.30;;;;;;;7.54;33.68;103135.22;4934881;28;20343;-73